createdAt,value
2018-07-31T00:02:06.276Z,9.50
2018-07-31T00:04:34.558Z,9.27
2018-07-31T00:07:02.814Z,9.30
2018-07-31T00:09:31.146Z,10.23
2018-07-31T00:11:59.468Z,9.83
2018-07-31T00:14:27.741Z,8.97
2018-07-31T00:16:56.002Z,9.37
2018-07-31T00:19:24.274Z,9.80
2018-07-31T00:21:52.552Z,10.10
2018-07-31T00:24:20.850Z,10.07
2018-07-31T00:26:49.259Z,9.07
2018-07-31T00:29:17.563Z,9.67
2018-07-31T00:31:45.832Z,9.37
2018-07-31T00:34:14.113Z,10.63
2018-07-31T00:36:42.435Z,9.87
2018-07-31T00:39:11.699Z,9.87
2018-07-31T00:41:40.756Z,10.03
2018-07-31T00:44:09.056Z,10.07
2018-07-31T00:46:37.849Z,10.30
2018-07-31T00:49:06.319Z,9.80
2018-07-31T00:51:34.750Z,11.37
2018-07-31T00:54:03.154Z,10.60
2018-07-31T00:56:31.435Z,10.27
2018-07-31T00:58:59.766Z,10.60
2018-07-31T01:01:28.078Z,11.47
2018-07-31T01:03:56.346Z,10.53
2018-07-31T01:06:26.651Z,10.03
2018-07-31T01:08:55.034Z,10.27
2018-07-31T01:11:23.548Z,10.80
2018-07-31T01:13:51.922Z,10.57
2018-07-31T01:16:19.944Z,10.67
2018-07-31T01:18:48.376Z,10.13
2018-07-31T01:21:16.646Z,10.47
2018-07-31T01:23:52.178Z,10.50
2018-07-31T01:26:20.441Z,10.33
2018-07-31T01:28:48.710Z,9.70
2018-07-31T01:31:16.963Z,9.87
2018-07-31T01:33:45.250Z,9.93
2018-07-31T01:36:13.627Z,9.33
2018-07-31T01:38:41.901Z,9.83
2018-07-31T01:41:10.189Z,10.07
2018-07-31T01:43:38.658Z,9.50
2018-07-31T01:46:07.068Z,9.47
2018-07-31T01:48:35.359Z,10.77
2018-07-31T01:51:04.613Z,10.00
2018-07-31T01:53:33.667Z,10.43
2018-07-31T01:56:03.877Z,10.20
2018-07-31T01:58:32.876Z,10.23
2018-07-31T02:01:01.876Z,10.57
2018-07-31T02:03:31.448Z,10.30
2018-07-31T02:06:00.645Z,9.87
2018-07-31T02:08:29.610Z,10.73
2018-07-31T02:10:58.727Z,10.33
2018-07-31T02:13:28.140Z,10.67
2018-07-31T02:15:56.425Z,10.17
2018-07-31T02:18:24.702Z,10.33
2018-07-31T02:20:53.022Z,10.60
2018-07-31T02:23:21.303Z,10.17
2018-07-31T02:25:49.586Z,10.00
2018-07-31T02:28:18.075Z,11.40
2018-07-31T02:30:46.282Z,10.67
2018-07-31T02:33:14.555Z,10.77
2018-07-31T02:35:42.900Z,10.60
2018-07-31T02:38:11.196Z,10.67
2018-07-31T02:40:39.588Z,10.47
2018-07-31T02:43:07.890Z,10.50
2018-07-31T02:45:36.216Z,11.10
2018-07-31T02:48:04.603Z,10.87
2018-07-31T02:50:32.911Z,10.33
2018-07-31T02:53:01.274Z,11.20
2018-07-31T02:55:29.560Z,11.00
2018-07-31T02:57:57.866Z,12.07
2018-07-31T03:00:26.203Z,11.40
2018-07-31T03:02:54.516Z,11.83
2018-07-31T03:05:22.814Z,11.47
2018-07-31T03:07:51.094Z,11.43
2018-07-31T03:10:19.377Z,11.00
2018-07-31T03:12:47.660Z,10.77
2018-07-31T03:15:16.131Z,11.70
2018-07-31T03:18:32.312Z,11.87
2018-07-31T03:21:00.632Z,11.33
2018-07-31T03:23:28.915Z,11.80
2018-07-31T03:25:57.207Z,11.33
2018-07-31T03:28:25.484Z,11.63
2018-07-31T03:30:54.461Z,11.50
2018-07-31T03:33:23.448Z,12.37
2018-07-31T03:35:52.359Z,11.43
2018-07-31T03:38:21.176Z,11.50
2018-07-31T03:40:50.118Z,12.37
2018-07-31T03:43:18.958Z,11.60
2018-07-31T03:45:47.934Z,12.27
2018-07-31T03:48:16.779Z,12.13
2018-07-31T03:50:45.035Z,11.70
2018-07-31T03:53:13.286Z,12.30
2018-07-31T03:55:41.654Z,11.60
2018-07-31T03:58:09.910Z,12.57
2018-07-31T04:00:38.242Z,11.77
2018-07-31T04:03:06.526Z,11.47
2018-07-31T04:05:34.811Z,11.10
2018-07-31T04:08:03.167Z,11.37
2018-07-31T04:10:31.427Z,12.23
2018-07-31T04:12:59.690Z,12.17
2018-07-31T04:18:18.871Z,11.43
2018-07-31T04:20:47.163Z,11.67
2018-07-31T04:23:15.475Z,11.50
2018-07-31T04:25:43.742Z,11.87
2018-07-31T04:28:12.043Z,11.50
2018-07-31T04:30:40.346Z,10.53
2018-07-31T04:33:08.620Z,12.10
2018-07-31T04:35:36.885Z,11.87
2018-07-31T04:38:05.187Z,12.43
2018-07-31T04:40:33.514Z,13.13
2018-07-31T04:43:02.083Z,12.50
2018-07-31T04:45:30.354Z,11.87
2018-07-31T04:47:58.619Z,12.70
2018-07-31T04:50:26.629Z,12.20
2018-07-31T04:52:54.903Z,12.07
2018-07-31T04:55:23.204Z,12.63
2018-07-31T04:57:51.507Z,13.23
2018-07-31T05:00:19.788Z,12.10
2018-07-31T05:02:48.126Z,12.57
2018-07-31T05:05:16.461Z,11.37
2018-07-31T05:07:44.718Z,11.17
2018-07-31T05:10:30.614Z,12.17
2018-07-31T05:12:58.913Z,12.10
2018-07-31T05:15:27.242Z,12.40
2018-07-31T05:17:55.519Z,14.00
2018-07-31T05:20:23.889Z,12.60
2018-07-31T05:22:52.173Z,12.93
2018-07-31T05:25:20.460Z,12.23
2018-07-31T05:27:48.726Z,12.43
2018-07-31T05:30:17.022Z,13.30
2018-07-31T05:32:45.361Z,12.23
2018-07-31T05:35:13.606Z,12.10
2018-07-31T05:37:41.861Z,13.27
2018-07-31T05:40:10.476Z,13.63
2018-07-31T05:42:38.731Z,12.77
2018-07-31T05:45:07.422Z,13.10
2018-07-31T05:47:35.955Z,13.63
2018-07-31T05:50:04.908Z,13.43
2018-07-31T05:52:48.266Z,11.63
2018-07-31T05:55:16.558Z,12.73
2018-07-31T05:57:44.826Z,13.17
2018-07-31T06:00:13.120Z,12.70
2018-07-31T06:02:41.398Z,12.33
2018-07-31T06:05:09.690Z,13.70
2018-07-31T06:07:38.515Z,12.93
2018-07-31T06:10:07.833Z,12.37
2018-07-31T06:12:36.122Z,11.80
2018-07-31T06:15:05.555Z,12.40
2018-07-31T06:17:33.562Z,11.80
2018-07-31T06:20:02.034Z,11.63
2018-07-31T06:22:30.653Z,11.13
2018-07-31T06:24:58.927Z,12.67
2018-07-31T06:27:27.247Z,12.33
2018-07-31T06:29:55.503Z,11.97
2018-07-31T06:32:24.450Z,11.97
2018-07-31T06:37:43.451Z,11.80
2018-07-31T06:40:11.818Z,12.10
2018-07-31T06:42:40.083Z,11.40
2018-07-31T06:45:08.521Z,10.87
2018-07-31T06:47:36.773Z,12.97
2018-07-31T06:50:05.396Z,10.87
2018-07-31T06:52:45.262Z,11.03
2018-07-31T06:55:13.550Z,11.30
2018-07-31T06:57:41.843Z,10.93
2018-07-31T07:00:10.147Z,10.53
2018-07-31T07:02:38.547Z,10.43
2018-07-31T07:05:08.182Z,11.27
2018-07-31T07:07:36.459Z,10.63
2018-07-31T07:10:05.246Z,11.13
2018-07-31T07:12:33.535Z,10.47
2018-07-31T07:15:01.834Z,10.37
2018-07-31T07:17:30.127Z,10.90
2018-07-31T07:19:58.514Z,10.90
2018-07-31T07:22:27.127Z,11.70
2018-07-31T07:24:55.635Z,10.47
2018-07-31T07:27:24.202Z,11.10
2018-07-31T07:29:52.474Z,11.60
2018-07-31T07:32:20.722Z,10.43
2018-07-31T07:34:48.731Z,10.38
2018-07-31T07:37:17.130Z,10.00
2018-07-31T07:42:37.291Z,9.65
2018-07-31T07:45:06.031Z,10.00
2018-07-31T07:47:34.314Z,9.23
2018-07-31T07:50:02.641Z,8.95
2018-07-31T07:52:30.920Z,9.68
2018-07-31T07:55:00.049Z,9.43
2018-07-31T07:57:29.153Z,9.30
2018-07-31T07:59:58.188Z,9.58
2018-07-31T08:02:27.046Z,9.68
2018-07-31T08:04:56.018Z,8.48
2018-07-31T08:07:25.030Z,9.43
2018-07-31T08:09:54.110Z,8.75
2018-07-31T08:12:23.115Z,10.10
2018-07-31T08:14:51.884Z,8.93
2018-07-31T08:17:20.915Z,9.08
2018-07-31T08:19:49.727Z,8.88
2018-07-31T08:22:18.877Z,9.03
2018-07-31T08:24:47.147Z,8.95
2018-07-31T08:27:16.179Z,8.78
2018-07-31T08:29:44.854Z,9.20
2018-07-31T08:32:13.864Z,8.28
2018-07-31T08:34:42.605Z,8.63
2018-07-31T08:37:11.431Z,8.83
2018-07-31T08:39:39.696Z,7.87
2018-07-31T08:42:08.622Z,8.60
2018-07-31T08:44:37.506Z,8.18
2018-07-31T08:47:06.511Z,8.90
2018-07-31T08:49:35.442Z,7.78
2018-07-31T08:52:04.520Z,8.43
2018-07-31T08:54:33.940Z,7.70
2018-07-31T08:57:03.234Z,7.58
2018-07-31T08:59:32.065Z,8.00
2018-07-31T09:02:00.928Z,7.87
2018-07-31T09:04:34.943Z,8.65
2018-07-31T09:07:03.755Z,8.05
2018-07-31T09:09:32.726Z,7.53
2018-07-31T09:12:01.514Z,7.50
2018-07-31T09:14:30.398Z,7.87
2018-07-31T09:16:59.230Z,7.65
2018-07-31T09:19:28.359Z,7.53
2018-07-31T09:21:57.257Z,7.53
2018-07-31T09:24:26.399Z,7.45
2018-07-31T09:26:55.291Z,7.40
2018-07-31T09:29:24.021Z,7.30
2018-07-31T09:31:52.261Z,7.75
2018-07-31T09:34:21.121Z,6.67
2018-07-31T09:36:51.004Z,7.00
2018-07-31T09:39:19.992Z,6.95
2018-07-31T09:41:48.756Z,7.55
2018-07-31T09:44:17.559Z,6.75
2018-07-31T09:46:46.316Z,6.45
2018-07-31T09:49:15.121Z,7.12
2018-07-31T09:51:43.795Z,7.05
2018-07-31T09:54:12.501Z,6.92
2018-07-31T09:56:41.361Z,6.50
2018-07-31T09:59:10.187Z,7.28
2018-07-31T10:04:29.226Z,7.17
2018-07-31T10:06:57.471Z,6.50
2018-07-31T10:12:16.408Z,6.85
2018-07-31T10:14:45.606Z,6.37
2018-07-31T10:17:13.861Z,5.67
2018-07-31T10:19:42.139Z,6.10
2018-07-31T10:25:01.559Z,6.25
2018-07-31T10:27:29.567Z,6.12
2018-07-31T10:29:57.863Z,5.72
2018-07-31T10:32:26.127Z,5.80
2018-07-31T10:34:54.390Z,5.20
2018-07-31T10:37:22.674Z,5.37
2018-07-31T10:39:51.077Z,5.87
2018-07-31T10:42:19.324Z,5.97
2018-07-31T10:44:47.752Z,5.78
2018-07-31T10:47:16.952Z,5.30
2018-07-31T10:49:49.893Z,5.50
2018-07-31T10:52:19.802Z,5.83
2018-07-31T10:54:48.759Z,5.37
2018-07-31T10:57:17.857Z,5.83
2018-07-31T10:59:46.608Z,4.95
2018-07-31T11:02:15.309Z,4.90
2018-07-31T11:04:44.099Z,4.87
2018-07-31T11:07:13.347Z,5.60
2018-07-31T11:09:42.229Z,5.20
2018-07-31T11:12:11.252Z,4.92
2018-07-31T11:14:40.181Z,4.62
2018-07-31T11:17:09.226Z,4.90
2018-07-31T11:19:38.226Z,4.95
2018-07-31T11:22:06.562Z,5.35
2018-07-31T11:24:34.825Z,5.03
2018-07-31T11:27:03.562Z,5.20
2018-07-31T11:29:32.437Z,5.53
2018-07-31T11:32:01.226Z,5.08
2018-07-31T11:34:30.021Z,4.65
2018-07-31T11:36:58.919Z,4.75
2018-07-31T11:39:27.938Z,5.35
2018-07-31T11:41:56.889Z,4.85
2018-07-31T11:44:25.609Z,4.90
2018-07-31T11:46:54.381Z,4.85
2018-07-31T11:49:22.830Z,5.62
2018-07-31T11:51:53.302Z,5.40
2018-07-31T11:54:31.251Z,5.55
2018-07-31T11:56:59.537Z,5.30
2018-07-31T11:59:28.399Z,4.62
2018-07-31T12:01:57.228Z,5.08
2018-07-31T12:04:26.047Z,4.70
2018-07-31T12:06:55.174Z,5.25
2018-07-31T12:09:23.714Z,5.10
2018-07-31T12:11:52.513Z,5.22
2018-07-31T12:14:21.273Z,5.22
2018-07-31T12:16:50.026Z,4.70
2018-07-31T12:19:18.940Z,5.45
2018-07-31T12:21:47.835Z,5.40
2018-07-31T12:27:07.588Z,5.03
2018-07-31T12:29:35.902Z,5.10
2018-07-31T12:32:04.281Z,5.72
2018-07-31T12:34:32.554Z,5.37
2018-07-31T12:37:00.824Z,5.25
2018-07-31T12:39:29.685Z,5.42
2018-07-31T12:41:58.711Z,4.90
2018-07-31T12:44:27.715Z,5.10
2018-07-31T12:46:56.657Z,4.80
2018-07-31T12:49:25.562Z,5.22
2018-07-31T12:51:54.402Z,5.10
2018-07-31T12:54:23.417Z,4.92
2018-07-31T12:56:52.413Z,4.92
2018-07-31T12:59:21.260Z,5.17
2018-07-31T13:01:50.253Z,4.90
2018-07-31T13:04:19.179Z,5.22
2018-07-31T13:06:47.494Z,5.35
2018-07-31T13:09:16.243Z,5.60
2018-07-31T13:11:45.241Z,5.12
2018-07-31T13:14:14.315Z,4.72
2018-07-31T13:16:42.969Z,5.92
2018-07-31T13:19:11.766Z,4.95
2018-07-31T13:21:40.465Z,6.12
2018-07-31T13:24:09.480Z,5.00
2018-07-31T13:26:38.607Z,7.33
2018-07-31T13:29:07.473Z,7.60
2018-07-31T13:31:36.662Z,5.10
2018-07-31T13:34:04.688Z,8.40
2018-07-31T13:36:32.969Z,5.30
2018-07-31T13:39:02.142Z,5.35
2018-07-31T13:41:30.388Z,4.92
2018-07-31T13:43:59.461Z,5.35
2018-07-31T13:46:28.287Z,5.55
2018-07-31T13:48:56.564Z,5.40
2018-07-31T13:51:25.214Z,5.30
2018-07-31T13:53:54.145Z,5.15
2018-07-31T13:56:22.839Z,5.12
2018-07-31T13:58:51.417Z,4.92
2018-07-31T14:01:19.705Z,5.50
2018-07-31T14:03:48.014Z,4.97
2018-07-31T14:06:16.273Z,5.15
2018-07-31T14:08:44.565Z,5.30
2018-07-31T14:11:13.569Z,5.53
2018-07-31T14:13:42.661Z,5.28
2018-07-31T14:16:11.497Z,5.45
2018-07-31T14:18:40.388Z,5.22
2018-07-31T14:21:09.652Z,5.42
2018-07-31T14:23:38.411Z,5.20
2018-07-31T14:26:07.461Z,5.05
2018-07-31T14:28:36.402Z,5.20
2018-07-31T14:31:05.293Z,5.33
2018-07-31T14:33:34.096Z,5.58
2018-07-31T14:36:02.969Z,5.42
2018-07-31T14:38:31.822Z,5.47
2018-07-31T14:41:00.776Z,4.92
2018-07-31T14:43:29.503Z,5.20
2018-07-31T14:45:58.353Z,5.70
2018-07-31T14:48:27.527Z,5.47
2018-07-31T14:50:56.442Z,5.28
2018-07-31T14:53:26.835Z,5.17
2018-07-31T14:55:55.909Z,5.03
2018-07-31T14:58:24.789Z,5.12
2018-07-31T15:00:53.721Z,5.40
2018-07-31T15:03:22.357Z,5.00
2018-07-31T15:05:51.271Z,5.12
2018-07-31T15:08:20.159Z,5.37
2018-07-31T15:10:49.070Z,4.90
2018-07-31T15:13:18.041Z,5.20
2018-07-31T15:15:47.109Z,5.80
2018-07-31T15:18:15.977Z,5.50
2018-07-31T15:20:44.835Z,5.45
2018-07-31T15:23:13.792Z,5.70
2018-07-31T15:25:42.660Z,5.10
2018-07-31T15:28:11.162Z,5.45
2018-07-31T15:30:40.304Z,4.85
2018-07-31T15:33:09.202Z,5.12
2018-07-31T15:35:38.513Z,5.42
2018-07-31T15:38:07.691Z,5.47
2018-07-31T15:40:36.812Z,5.33
2018-07-31T15:43:05.765Z,4.95
2018-07-31T15:45:34.960Z,5.30
2018-07-31T15:48:03.848Z,5.00
2018-07-31T15:50:32.722Z,5.72
2018-07-31T15:53:01.896Z,5.40
2018-07-31T15:55:30.822Z,5.30
2018-07-31T15:57:59.684Z,5.10
2018-07-31T16:00:28.732Z,4.75
2018-07-31T16:03:20.386Z,4.75
2018-07-31T16:05:51.157Z,5.25
2018-07-31T16:08:19.893Z,5.00
2018-07-31T16:10:48.724Z,5.10
2018-07-31T16:13:17.635Z,5.33
2018-07-31T16:15:46.524Z,5.65
2018-07-31T16:18:15.448Z,5.35
2018-07-31T16:20:44.182Z,5.65
2018-07-31T16:23:13.061Z,5.42
2018-07-31T16:25:41.919Z,5.22
2018-07-31T16:28:10.944Z,5.45
2018-07-31T16:30:39.897Z,5.35
2018-07-31T16:33:09.055Z,5.72
2018-07-31T16:35:37.958Z,5.58
2018-07-31T16:38:06.817Z,5.15
2018-07-31T16:40:35.732Z,5.65
2018-07-31T16:43:04.560Z,6.05
2018-07-31T16:45:33.363Z,4.60
2018-07-31T16:48:02.386Z,5.80
2018-07-31T16:50:31.296Z,5.25
2018-07-31T16:53:00.020Z,5.83
2018-07-31T16:55:29.151Z,5.70
2018-07-31T16:59:03.662Z,5.75
2018-07-31T17:01:32.556Z,5.70
2018-07-31T17:04:01.478Z,5.78
2018-07-31T17:06:30.318Z,5.00
2018-07-31T17:09:00.257Z,5.90
2018-07-31T17:11:29.633Z,5.55
2018-07-31T17:13:58.471Z,5.42
2018-07-31T17:16:28.193Z,5.67
2018-07-31T17:18:57.171Z,5.37
2018-07-31T17:21:25.702Z,5.60
2018-07-31T17:23:54.520Z,5.60
2018-07-31T17:26:23.399Z,5.55
2018-07-31T17:28:51.675Z,5.37
2018-07-31T17:31:20.473Z,5.70
2018-07-31T17:33:49.462Z,5.37
2018-07-31T17:36:18.346Z,6.15
2018-07-31T17:38:47.530Z,5.28
2018-07-31T17:41:16.578Z,5.25
2018-07-31T17:43:45.425Z,5.95
2018-07-31T17:46:14.136Z,5.72
2018-07-31T17:48:42.946Z,5.45
2018-07-31T17:51:11.656Z,5.22
2018-07-31T17:53:40.874Z,4.90
2018-07-31T17:56:09.806Z,4.90
2018-07-31T17:58:38.756Z,4.97
2018-07-31T18:01:07.727Z,5.15
2018-07-31T18:03:36.680Z,5.20
2018-07-31T18:06:05.758Z,4.95
2018-07-31T18:08:34.663Z,4.90
2018-07-31T18:11:02.987Z,5.22
2018-07-31T18:13:31.929Z,5.70
2018-07-31T18:16:00.928Z,5.37
2018-07-31T18:18:29.660Z,5.55
2018-07-31T18:20:58.707Z,5.70
2018-07-31T18:23:27.070Z,5.33
2018-07-31T18:25:56.153Z,5.83
2018-07-31T18:28:25.223Z,5.47
2018-07-31T18:30:54.240Z,4.90
2018-07-31T18:33:23.330Z,5.35
2018-07-31T18:35:52.623Z,5.37
2018-07-31T18:38:20.957Z,5.58
2018-07-31T18:40:49.263Z,5.72
2018-07-31T18:43:18.178Z,5.60
2018-07-31T18:45:47.185Z,5.83
2018-07-31T18:48:16.102Z,5.62
2018-07-31T18:50:44.976Z,6.12
2018-07-31T18:53:13.771Z,6.00
2018-07-31T18:55:42.482Z,5.55
2018-07-31T18:58:11.455Z,5.97
2018-07-31T19:00:40.387Z,6.30
2018-07-31T19:03:10.244Z,5.47
2018-07-31T19:05:38.704Z,5.72
2018-07-31T19:08:07.911Z,5.83
2018-07-31T19:10:36.923Z,5.22
2018-07-31T19:13:05.744Z,5.97
2018-07-31T19:15:34.689Z,5.87
2018-07-31T19:18:03.732Z,5.55
2018-07-31T19:20:47.598Z,5.62
2018-07-31T19:23:16.717Z,5.85
2018-07-31T19:25:45.510Z,6.10
2018-07-31T19:28:14.406Z,6.27
2018-07-31T19:30:44.572Z,5.60
2018-07-31T19:33:14.438Z,6.33
2018-07-31T19:35:43.912Z,6.20
2018-07-31T19:38:12.680Z,6.40
2018-07-31T19:40:41.087Z,6.00
2018-07-31T19:43:09.501Z,6.30
2018-07-31T19:45:37.869Z,6.37
2018-07-31T19:50:48.839Z,6.97
2018-07-31T19:53:17.185Z,6.20
2018-07-31T19:55:45.502Z,5.97
2018-07-31T19:58:13.817Z,6.30
2018-07-31T20:00:49.890Z,6.30
2018-07-31T20:03:18.159Z,6.70
2018-07-31T20:05:46.536Z,6.97
2018-07-31T20:08:14.848Z,6.17
2018-07-31T20:10:43.106Z,6.70
2018-07-31T20:13:11.452Z,6.77
2018-07-31T20:15:40.122Z,6.13
2018-07-31T20:18:08.317Z,6.57
2018-07-31T20:20:37.506Z,6.50
2018-07-31T20:23:07.516Z,6.37
2018-07-31T20:25:35.926Z,6.43
2018-07-31T20:28:04.274Z,6.77
2018-07-31T20:30:32.656Z,6.50
2018-07-31T20:33:00.879Z,6.60
2018-07-31T20:35:29.210Z,6.67
2018-07-31T20:37:57.446Z,6.57
2018-07-31T20:40:25.769Z,6.55
2018-07-31T20:42:54.242Z,6.67
2018-07-31T20:45:22.764Z,6.63
2018-07-31T20:47:51.021Z,6.70
2018-07-31T20:50:19.462Z,6.53
2018-07-31T20:52:47.714Z,5.90
2018-07-31T20:55:21.076Z,6.37
2018-07-31T20:57:49.351Z,7.00
2018-07-31T21:00:17.508Z,6.40
2018-07-31T21:02:45.778Z,6.40
2018-07-31T21:05:14.056Z,6.20
2018-07-31T21:07:42.380Z,6.63
2018-07-31T21:10:10.725Z,6.13
2018-07-31T21:12:39.020Z,6.70
2018-07-31T21:15:07.667Z,6.07
2018-07-31T21:17:35.975Z,6.60
2018-07-31T21:20:04.606Z,6.37
2018-07-31T21:22:32.869Z,6.67
2018-07-31T21:25:02.137Z,6.37
2018-07-31T21:27:30.455Z,6.50
2018-07-31T21:29:58.726Z,6.03
2018-07-31T21:32:26.982Z,6.67
2018-07-31T21:34:55.236Z,6.43
2018-07-31T21:37:23.478Z,6.47
2018-07-31T21:39:51.979Z,6.13
2018-07-31T21:42:20.235Z,6.10
2018-07-31T21:44:48.776Z,5.80
2018-07-31T21:47:17.055Z,6.23
2018-07-31T21:49:45.354Z,6.70
2018-07-31T21:52:13.604Z,6.50
2018-07-31T21:54:41.872Z,6.40
2018-07-31T21:57:10.128Z,6.30
2018-07-31T21:59:38.440Z,6.13
2018-07-31T22:02:06.742Z,6.83
2018-07-31T22:04:35.036Z,6.63
2018-07-31T22:07:03.291Z,6.50
2018-07-31T22:09:35.792Z,6.40
2018-07-31T22:12:04.048Z,6.50
2018-07-31T22:14:32.307Z,6.30
2018-07-31T22:17:00.561Z,6.37
2018-07-31T22:19:28.805Z,5.80
2018-07-31T22:21:57.056Z,6.43
2018-07-31T22:24:25.350Z,6.37
2018-07-31T22:26:53.632Z,6.30
2018-07-31T22:29:21.920Z,6.40
2018-07-31T22:31:50.210Z,5.90
2018-07-31T22:37:09.291Z,5.50
2018-07-31T22:39:37.623Z,6.67
2018-07-31T22:42:05.917Z,6.07
2018-07-31T22:44:34.174Z,6.73
2018-07-31T22:47:02.441Z,6.43
2018-07-31T22:49:30.699Z,6.50
2018-07-31T22:51:58.976Z,6.53
2018-07-31T22:57:17.810Z,6.43
2018-07-31T22:59:46.190Z,6.57
2018-07-31T23:02:14.455Z,6.17
2018-07-31T23:04:42.708Z,5.87
2018-07-31T23:07:11.011Z,6.60
2018-07-31T23:09:39.266Z,6.40
2018-07-31T23:12:07.525Z,6.77
2018-07-31T23:17:26.746Z,6.50
2018-07-31T23:19:55.027Z,6.80
2018-07-31T23:22:35.206Z,6.60
2018-07-31T23:25:03.817Z,6.57
2018-07-31T23:27:31.849Z,6.97
2018-07-31T23:30:00.108Z,6.97
2018-07-31T23:32:28.400Z,6.87
2018-07-31T23:34:56.697Z,6.90
2018-07-31T23:40:15.839Z,6.67
2018-07-31T23:42:44.127Z,6.90
2018-07-31T23:45:12.403Z,6.87
2018-07-31T23:47:40.669Z,6.97
2018-07-31T23:50:08.954Z,6.83
2018-07-31T23:52:37.235Z,7.17
2018-07-31T23:55:05.532Z,6.53
2018-07-31T23:57:33.783Z,6.93
